sensor_id;sensor_type;location;lat;lon;timestamp;temperature;humidity
30280;DHT22;17097;50.916;5.344;2022-08-11T00:00:45;24.40;68.50
30280;DHT22;17097;50.916;5.344;2022-08-11T00:03:12;24.40;68.80
30280;DHT22;17097;50.916;5.344;2022-08-11T00:05:53;24.30;69.20
30280;DHT22;17097;50.916;5.344;2022-08-11T00:08:25;24.30;69.80
30280;DHT22;17097;50.916;5.344;2022-08-11T00:11:06;24.30;70.50
30280;DHT22;17097;50.916;5.344;2022-08-11T00:13:36;24.30;70.60
30280;DHT22;17097;50.916;5.344;2022-08-11T00:16:04;24.20;70.50
30280;DHT22;17097;50.916;5.344;2022-08-11T00:18:42;24.20;70.90
30280;DHT22;17097;50.916;5.344;2022-08-11T00:21:10;24.10;71.00
30280;DHT22;17097;50.916;5.344;2022-08-11T00:23:52;24.10;71.30
30280;DHT22;17097;50.916;5.344;2022-08-11T00:26:17;24.10;71.70
30280;DHT22;17097;50.916;5.344;2022-08-11T00:28:43;24.00;71.70
30280;DHT22;17097;50.916;5.344;2022-08-11T00:31:30;24.00;71.80
30280;DHT22;17097;50.916;5.344;2022-08-11T00:33:58;24.00;72.00
30280;DHT22;17097;50.916;5.344;2022-08-11T00:36:28;23.90;72.30
30280;DHT22;17097;50.916;5.344;2022-08-11T00:39:04;23.80;72.60
30280;DHT22;17097;50.916;5.344;2022-08-11T00:41:35;23.70;73.20
30280;DHT22;17097;50.916;5.344;2022-08-11T00:44:57;23.70;73.80
30280;DHT22;17097;50.916;5.344;2022-08-11T00:47:39;23.60;73.90
30280;DHT22;17097;50.916;5.344;2022-08-11T00:53:22;23.50;75.00
30280;DHT22;17097;50.916;5.344;2022-08-11T00:56:22;23.40;75.40
30280;DHT22;17097;50.916;5.344;2022-08-11T00:59:09;23.40;75.90
30280;DHT22;17097;50.916;5.344;2022-08-11T01:07:20;23.20;77.30
30280;DHT22;17097;50.916;5.344;2022-08-11T01:21:15;23.00;79.30
30280;DHT22;17097;50.916;5.344;2022-08-11T01:43:18;22.70;84.30
30280;DHT22;17097;50.916;5.344;2022-08-11T01:48:48;22.60;85.80
30280;DHT22;17097;50.916;5.344;2022-08-11T01:51:34;22.50;86.30
30280;DHT22;17097;50.916;5.344;2022-08-11T01:54:17;22.50;86.90
30280;DHT22;17097;50.916;5.344;2022-08-11T01:59:36;22.40;87.90
30280;DHT22;17097;50.916;5.344;2022-08-11T02:11:05;22.20;91.20
30280;DHT22;17097;50.916;5.344;2022-08-11T02:16:58;22.20;92.10
30280;DHT22;17097;50.916;5.344;2022-08-11T02:22:54;22.10;93.00
30280;DHT22;17097;50.916;5.344;2022-08-11T02:25:49;22.00;93.50
30280;DHT22;17097;50.916;5.344;2022-08-11T02:34:20;21.90;94.70
30280;DHT22;17097;50.916;5.344;2022-08-11T02:36:57;21.80;95.40
30280;DHT22;17097;50.916;5.344;2022-08-11T02:39:35;21.80;95.80
30280;DHT22;17097;50.916;5.344;2022-08-11T02:42:39;21.70;96.20
30280;DHT22;17097;50.916;5.344;2022-08-11T02:47:57;21.60;97.20
30280;DHT22;17097;50.916;5.344;2022-08-11T02:51:03;21.60;97.50
30280;DHT22;17097;50.916;5.344;2022-08-11T02:53:48;21.50;97.90
30280;DHT22;17097;50.916;5.344;2022-08-11T03:01:48;21.40;99.20
30280;DHT22;17097;50.916;5.344;2022-08-11T03:04:24;21.40;99.50
30280;DHT22;17097;50.916;5.344;2022-08-11T03:06:58;21.40;99.80
30280;DHT22;17097;50.916;5.344;2022-08-11T03:12:17;21.40;99.90
30280;DHT22;17097;50.916;5.344;2022-08-11T03:15:15;21.30;99.90
30280;DHT22;17097;50.916;5.344;2022-08-11T03:18:35;21.30;99.90
30280;DHT22;17097;50.916;5.344;2022-08-11T03:21:20;21.20;99.90
30280;DHT22;17097;50.916;5.344;2022-08-11T03:29:41;21.10;99.90
30280;DHT22;17097;50.916;5.344;2022-08-11T03:34:51;21.10;99.90
30280;DHT22;17097;50.916;5.344;2022-08-11T03:40:19;21.00;99.90
30280;DHT22;17097;50.916;5.344;2022-08-11T03:46:25;20.90;99.90
30280;DHT22;17097;50.916;5.344;2022-08-11T03:49:14;20.90;99.90
30280;DHT22;17097;50.916;5.344;2022-08-11T03:54:36;20.80;99.90
30280;DHT22;17097;50.916;5.344;2022-08-11T03:57:36;20.80;99.90
30280;DHT22;17097;50.916;5.344;2022-08-11T04:11:51;20.70;99.90
30280;DHT22;17097;50.916;5.344;2022-08-11T04:46:13;20.60;99.90
30280;DHT22;17097;50.916;5.344;2022-08-11T04:49:19;20.50;99.90
30280;DHT22;17097;50.916;5.344;2022-08-11T04:58:41;20.70;99.90
30280;DHT22;17097;50.916;5.344;2022-08-11T05:10:22;20.60;99.90
30280;DHT22;17097;50.916;5.344;2022-08-11T05:12:56;20.70;99.90
30280;DHT22;17097;50.916;5.344;2022-08-11T05:15:54;20.70;99.90
30280;DHT22;17097;50.916;5.344;2022-08-11T05:18:48;20.80;99.90
30280;DHT22;17097;50.916;5.344;2022-08-11T05:21:34;20.80;99.90
30280;DHT22;17097;50.916;5.344;2022-08-11T05:24:30;20.80;99.90
30280;DHT22;17097;50.916;5.344;2022-08-11T05:27:18;20.90;99.90
30280;DHT22;17097;50.916;5.344;2022-08-11T05:30:06;21.00;99.90
30280;DHT22;17097;50.916;5.344;2022-08-11T05:33:20;21.00;99.90
30280;DHT22;17097;50.916;5.344;2022-08-11T05:39:30;21.10;99.90
30280;DHT22;17097;50.916;5.344;2022-08-11T05:42:16;21.20;99.90
30280;DHT22;17097;50.916;5.344;2022-08-11T05:45:04;21.20;99.90
30280;DHT22;17097;50.916;5.344;2022-08-11T05:47:53;21.20;99.90
30280;DHT22;17097;50.916;5.344;2022-08-11T05:50:38;21.30;99.90
30280;DHT22;17097;50.916;5.344;2022-08-11T05:53:23;21.50;99.90
30280;DHT22;17097;50.916;5.344;2022-08-11T05:56:08;21.50;99.90
30280;DHT22;17097;50.916;5.344;2022-08-11T05:58:49;21.50;99.90
30280;DHT22;17097;50.916;5.344;2022-08-11T06:01:24;21.60;99.90
30280;DHT22;17097;50.916;5.344;2022-08-11T06:03:53;21.70;99.90
30280;DHT22;17097;50.916;5.344;2022-08-11T06:09:24;21.90;99.90
30280;DHT22;17097;50.916;5.344;2022-08-11T06:11:51;22.00;99.90
30280;DHT22;17097;50.916;5.344;2022-08-11T06:14:18;22.00;99.90
30280;DHT22;17097;50.916;5.344;2022-08-11T06:16:47;22.20;99.90
30280;DHT22;17097;50.916;5.344;2022-08-11T06:19:15;22.20;99.90
30280;DHT22;17097;50.916;5.344;2022-08-11T06:21:45;22.20;99.90
30280;DHT22;17097;50.916;5.344;2022-08-11T06:24:12;22.20;99.90
30280;DHT22;17097;50.916;5.344;2022-08-11T06:26:47;22.30;99.90
30280;DHT22;17097;50.916;5.344;2022-08-11T06:29:14;22.50;99.90
30280;DHT22;17097;50.916;5.344;2022-08-11T06:31:56;22.40;99.90
30280;DHT22;17097;50.916;5.344;2022-08-11T06:39:46;22.60;99.90
30280;DHT22;17097;50.916;5.344;2022-08-11T06:45:27;22.80;99.90
30280;DHT22;17097;50.916;5.344;2022-08-11T06:47:55;23.00;99.90
30280;DHT22;17097;50.916;5.344;2022-08-11T06:50:25;23.00;99.90
30280;DHT22;17097;50.916;5.344;2022-08-11T06:53:10;23.10;99.90
30280;DHT22;17097;50.916;5.344;2022-08-11T06:55:40;23.20;99.90
30280;DHT22;17097;50.916;5.344;2022-08-11T06:58:34;23.30;99.90
30280;DHT22;17097;50.916;5.344;2022-08-11T07:04:28;23.40;99.90
30280;DHT22;17097;50.916;5.344;2022-08-11T07:13:07;23.70;99.90
30280;DHT22;17097;50.916;5.344;2022-08-11T07:15:53;23.90;99.30
30280;DHT22;17097;50.916;5.344;2022-08-11T07:18:33;23.90;99.20
30280;DHT22;17097;50.916;5.344;2022-08-11T07:21:28;24.00;99.20
30280;DHT22;17097;50.916;5.344;2022-08-11T07:24:29;24.10;98.40
30280;DHT22;17097;50.916;5.344;2022-08-11T07:27:17;24.10;97.90
30280;DHT22;17097;50.916;5.344;2022-08-11T07:30:06;24.40;97.00
30280;DHT22;17097;50.916;5.344;2022-08-11T07:32:37;24.50;96.80
30280;DHT22;17097;50.916;5.344;2022-08-11T07:35:11;24.50;96.90
30280;DHT22;17097;50.916;5.344;2022-08-11T07:37:42;24.70;96.20
30280;DHT22;17097;50.916;5.344;2022-08-11T07:40:10;24.80;94.90
30280;DHT22;17097;50.916;5.344;2022-08-11T07:42:36;25.00;93.80
30280;DHT22;17097;50.916;5.344;2022-08-11T07:45:07;25.50;90.60
30280;DHT22;17097;50.916;5.344;2022-08-11T07:47:54;26.00;88.00
30280;DHT22;17097;50.916;5.344;2022-08-11T07:50:43;26.20;85.20
30280;DHT22;17097;50.916;5.344;2022-08-11T07:53:29;26.30;84.00
30280;DHT22;17097;50.916;5.344;2022-08-11T07:55:58;26.30;84.30
30280;DHT22;17097;50.916;5.344;2022-08-11T07:58:25;26.30;83.90
30280;DHT22;17097;50.916;5.344;2022-08-11T08:01:11;26.20;84.90
30280;DHT22;17097;50.916;5.344;2022-08-11T08:03:58;26.20;84.00
30280;DHT22;17097;50.916;5.344;2022-08-11T08:06:43;26.40;82.20
30280;DHT22;17097;50.916;5.344;2022-08-11T08:09:32;26.40;80.30
30280;DHT22;17097;50.916;5.344;2022-08-11T08:12:20;26.40;79.90
30280;DHT22;17097;50.916;5.344;2022-08-11T08:15:15;26.60;79.10
30280;DHT22;17097;50.916;5.344;2022-08-11T08:18:02;26.70;77.80
30280;DHT22;17097;50.916;5.344;2022-08-11T08:20:37;26.70;78.00
30280;DHT22;17097;50.916;5.344;2022-08-11T08:23:05;26.80;77.40
30280;DHT22;17097;50.916;5.344;2022-08-11T08:25:33;26.80;77.90
30280;DHT22;17097;50.916;5.344;2022-08-11T08:28:02;26.90;74.60
30280;DHT22;17097;50.916;5.344;2022-08-11T08:30:30;27.00;74.10
30280;DHT22;17097;50.916;5.344;2022-08-11T08:33:23;27.10;75.60
30280;DHT22;17097;50.916;5.344;2022-08-11T08:35:55;27.50;72.40
30280;DHT22;17097;50.916;5.344;2022-08-11T08:38:40;27.60;71.90
30280;DHT22;17097;50.916;5.344;2022-08-11T08:41:07;27.60;72.00
30280;DHT22;17097;50.916;5.344;2022-08-11T08:43:34;27.60;72.10
30280;DHT22;17097;50.916;5.344;2022-08-11T08:46:01;27.70;71.50
30280;DHT22;17097;50.916;5.344;2022-08-11T08:48:30;27.90;70.40
30280;DHT22;17097;50.916;5.344;2022-08-11T08:51:00;27.90;71.50
30280;DHT22;17097;50.916;5.344;2022-08-11T08:53:51;28.20;69.50
30280;DHT22;17097;50.916;5.344;2022-08-11T08:56:19;28.30;68.60
30280;DHT22;17097;50.916;5.344;2022-08-11T08:58:49;28.50;69.60
30280;DHT22;17097;50.916;5.344;2022-08-11T09:01:15;28.90;68.60
30280;DHT22;17097;50.916;5.344;2022-08-11T09:03:44;29.70;66.20
30280;DHT22;17097;50.916;5.344;2022-08-11T09:06:10;30.70;58.60
30280;DHT22;17097;50.916;5.344;2022-08-11T09:08:39;31.80;59.00
30280;DHT22;17097;50.916;5.344;2022-08-11T09:11:05;32.80;55.40
30280;DHT22;17097;50.916;5.344;2022-08-11T09:13:51;33.80;54.70
30280;DHT22;17097;50.916;5.344;2022-08-11T09:16:18;34.70;52.20
30280;DHT22;17097;50.916;5.344;2022-08-11T09:18:44;35.30;49.50
30280;DHT22;17097;50.916;5.344;2022-08-11T09:21:14;35.90;48.40
30280;DHT22;17097;50.916;5.344;2022-08-11T09:23:41;36.50;46.50
30280;DHT22;17097;50.916;5.344;2022-08-11T09:26:27;36.90;45.50
30280;DHT22;17097;50.916;5.344;2022-08-11T09:29:27;36.90;45.50
30280;DHT22;17097;50.916;5.344;2022-08-11T09:31:53;37.60;42.30
30280;DHT22;17097;50.916;5.344;2022-08-11T09:34:21;38.10;43.50
30280;DHT22;17097;50.916;5.344;2022-08-11T09:36:47;38.60;42.00
30280;DHT22;17097;50.916;5.344;2022-08-11T09:39:35;38.90;41.40
30280;DHT22;17097;50.916;5.344;2022-08-11T09:42:21;39.10;40.70
30280;DHT22;17097;50.916;5.344;2022-08-11T09:44:47;39.60;39.10
30280;DHT22;17097;50.916;5.344;2022-08-11T09:47:22;39.90;38.10
30280;DHT22;17097;50.916;5.344;2022-08-11T09:49:51;40.10;38.00
30280;DHT22;17097;50.916;5.344;2022-08-11T09:52:17;40.40;37.90
30280;DHT22;17097;50.916;5.344;2022-08-11T09:54:46;40.90;37.50
30280;DHT22;17097;50.916;5.344;2022-08-11T09:57:13;41.10;36.50
30280;DHT22;17097;50.916;5.344;2022-08-11T09:59:57;41.40;35.40
30280;DHT22;17097;50.916;5.344;2022-08-11T10:02:27;41.40;35.10
30280;DHT22;17097;50.916;5.344;2022-08-11T10:04:57;41.10;35.10
30280;DHT22;17097;50.916;5.344;2022-08-11T10:07:49;41.00;35.70
30280;DHT22;17097;50.916;5.344;2022-08-11T10:10:18;41.30;36.00
30280;DHT22;17097;50.916;5.344;2022-08-11T10:12:51;41.60;34.90
30280;DHT22;17097;50.916;5.344;2022-08-11T10:15:20;41.70;33.90
30280;DHT22;17097;50.916;5.344;2022-08-11T10:18:07;40.80;33.70
30280;DHT22;17097;50.916;5.344;2022-08-11T10:20:59;40.40;34.20
30280;DHT22;17097;50.916;5.344;2022-08-11T10:23:28;40.20;35.20
30280;DHT22;17097;50.916;5.344;2022-08-11T10:26:13;40.50;35.50
30280;DHT22;17097;50.916;5.344;2022-08-11T10:29:00;40.80;35.20
30280;DHT22;17097;50.916;5.344;2022-08-11T10:31:27;41.10;34.20
30280;DHT22;17097;50.916;5.344;2022-08-11T10:34:12;41.30;33.60
30280;DHT22;17097;50.916;5.344;2022-08-11T10:36:39;41.40;33.10
30280;DHT22;17097;50.916;5.344;2022-08-11T10:39:13;41.40;32.80
30280;DHT22;17097;50.916;5.344;2022-08-11T10:41:45;41.30;33.40
30280;DHT22;17097;50.916;5.344;2022-08-11T10:44:38;40.90;33.50
30280;DHT22;17097;50.916;5.344;2022-08-11T10:47:05;40.40;34.80
30280;DHT22;17097;50.916;5.344;2022-08-11T10:49:51;40.80;34.10
30280;DHT22;17097;50.916;5.344;2022-08-11T10:52:37;41.00;34.40
30280;DHT22;17097;50.916;5.344;2022-08-11T10:55:22;41.10;33.70
30280;DHT22;17097;50.916;5.344;2022-08-11T10:58:11;41.40;33.00
30280;DHT22;17097;50.916;5.344;2022-08-11T11:00:57;41.20;32.90
30280;DHT22;17097;50.916;5.344;2022-08-11T11:03:25;41.20;32.50
30280;DHT22;17097;50.916;5.344;2022-08-11T11:05:59;41.40;33.50
30280;DHT22;17097;50.916;5.344;2022-08-11T11:08:28;41.50;32.90
30280;DHT22;17097;50.916;5.344;2022-08-11T11:11:13;41.50;32.30
30280;DHT22;17097;50.916;5.344;2022-08-11T11:13:43;41.50;32.70
30280;DHT22;17097;50.916;5.344;2022-08-11T11:16:29;41.40;32.20
30280;DHT22;17097;50.916;5.344;2022-08-11T11:19:14;41.40;33.10
30280;DHT22;17097;50.916;5.344;2022-08-11T11:21:46;41.20;32.80
30280;DHT22;17097;50.916;5.344;2022-08-11T11:24:31;40.90;33.20
30280;DHT22;17097;50.916;5.344;2022-08-11T11:27:17;40.40;33.30
30280;DHT22;17097;50.916;5.344;2022-08-11T11:30:05;39.70;33.30
30280;DHT22;17097;50.916;5.344;2022-08-11T11:32:51;39.70;34.10
30280;DHT22;17097;50.916;5.344;2022-08-11T11:37:56;39.80;34.10
30280;DHT22;17097;50.916;5.344;2022-08-11T11:40:23;39.80;33.40
30280;DHT22;17097;50.916;5.344;2022-08-11T11:42:50;39.40;33.70
30280;DHT22;17097;50.916;5.344;2022-08-11T11:45:18;39.40;34.70
30280;DHT22;17097;50.916;5.344;2022-08-11T11:47:44;39.20;34.90
30280;DHT22;17097;50.916;5.344;2022-08-11T11:50:11;39.00;34.70
30280;DHT22;17097;50.916;5.344;2022-08-11T11:52:38;38.90;34.70
30280;DHT22;17097;50.916;5.344;2022-08-11T11:55:05;38.70;34.60
30280;DHT22;17097;50.916;5.344;2022-08-11T11:57:32;38.20;34.80
30280;DHT22;17097;50.916;5.344;2022-08-11T12:00:18;38.00;35.50
30280;DHT22;17097;50.916;5.344;2022-08-11T12:03:06;38.10;35.30
30280;DHT22;17097;50.916;5.344;2022-08-11T12:05:33;37.80;35.40
30280;DHT22;17097;50.916;5.344;2022-08-11T12:08:02;37.80;35.60
30280;DHT22;17097;50.916;5.344;2022-08-11T12:10:53;37.90;35.60
30280;DHT22;17097;50.916;5.344;2022-08-11T12:13:42;37.40;36.30
30280;DHT22;17097;50.916;5.344;2022-08-11T12:16:10;37.40;36.80
30280;DHT22;17097;50.916;5.344;2022-08-11T12:18:37;37.50;36.10
30280;DHT22;17097;50.916;5.344;2022-08-11T12:21:04;37.50;37.10
30280;DHT22;17097;50.916;5.344;2022-08-11T12:23:31;37.70;35.70
30280;DHT22;17097;50.916;5.344;2022-08-11T12:26:17;37.70;35.60
30280;DHT22;17097;50.916;5.344;2022-08-11T12:29:04;37.70;35.90
30280;DHT22;17097;50.916;5.344;2022-08-11T12:31:32;37.50;35.00
30280;DHT22;17097;50.916;5.344;2022-08-11T12:34:08;37.60;35.40
30280;DHT22;17097;50.916;5.344;2022-08-11T12:36:38;37.50;34.00
30280;DHT22;17097;50.916;5.344;2022-08-11T12:39:09;37.50;33.90
30280;DHT22;17097;50.916;5.344;2022-08-11T12:41:35;37.30;34.20
30280;DHT22;17097;50.916;5.344;2022-08-11T12:44:23;37.10;34.30
30280;DHT22;17097;50.916;5.344;2022-08-11T12:47:09;37.20;34.50
30280;DHT22;17097;50.916;5.344;2022-08-11T12:49:37;37.00;34.30
30280;DHT22;17097;50.916;5.344;2022-08-11T12:52:48;36.90;34.50
30280;DHT22;17097;50.916;5.344;2022-08-11T12:55:16;37.00;33.80
30280;DHT22;17097;50.916;5.344;2022-08-11T12:58:06;37.00;33.70
30280;DHT22;17097;50.916;5.344;2022-08-11T13:00:46;36.80;34.20
30280;DHT22;17097;50.916;5.344;2022-08-11T13:03:32;36.60;33.90
30280;DHT22;17097;50.916;5.344;2022-08-11T13:06:18;36.70;34.30
30280;DHT22;17097;50.916;5.344;2022-08-11T13:08:47;36.60;33.80
30280;DHT22;17097;50.916;5.344;2022-08-11T13:11:15;36.50;34.10
30280;DHT22;17097;50.916;5.344;2022-08-11T13:14:00;36.60;34.10
30280;DHT22;17097;50.916;5.344;2022-08-11T13:16:34;36.70;34.30
30280;DHT22;17097;50.916;5.344;2022-08-11T13:19:22;36.80;34.10
30280;DHT22;17097;50.916;5.344;2022-08-11T13:21:49;37.00;33.10
30280;DHT22;17097;50.916;5.344;2022-08-11T13:24:17;37.00;32.50
30280;DHT22;17097;50.916;5.344;2022-08-11T13:26:44;37.10;32.80
30280;DHT22;17097;50.916;5.344;2022-08-11T13:29:11;37.40;32.60
30280;DHT22;17097;50.916;5.344;2022-08-11T13:31:39;37.50;32.60
30280;DHT22;17097;50.916;5.344;2022-08-11T13:34:08;37.40;32.30
30280;DHT22;17097;50.916;5.344;2022-08-11T13:36:34;37.60;32.30
30280;DHT22;17097;50.916;5.344;2022-08-11T13:39:01;37.50;32.30
30280;DHT22;17097;50.916;5.344;2022-08-11T13:41:28;37.40;32.20
30280;DHT22;17097;50.916;5.344;2022-08-11T13:44:08;37.40;32.60
30280;DHT22;17097;50.916;5.344;2022-08-11T13:46:34;37.30;32.50
30280;DHT22;17097;50.916;5.344;2022-08-11T13:49:01;37.20;32.30
30280;DHT22;17097;50.916;5.344;2022-08-11T13:51:29;37.20;32.20
30280;DHT22;17097;50.916;5.344;2022-08-11T13:54:09;37.10;32.40
30280;DHT22;17097;50.916;5.344;2022-08-11T13:56:37;37.00;33.10
30280;DHT22;17097;50.916;5.344;2022-08-11T13:59:07;37.10;33.10
30280;DHT22;17097;50.916;5.344;2022-08-11T14:01:38;37.30;34.50
30280;DHT22;17097;50.916;5.344;2022-08-11T14:04:09;37.20;33.80
30280;DHT22;17097;50.916;5.344;2022-08-11T14:06:39;37.30;33.10
30280;DHT22;17097;50.916;5.344;2022-08-11T14:09:07;37.50;31.70
30280;DHT22;17097;50.916;5.344;2022-08-11T14:11:35;37.50;32.10
30280;DHT22;17097;50.916;5.344;2022-08-11T14:14:25;37.40;32.10
30280;DHT22;17097;50.916;5.344;2022-08-11T14:16:53;37.30;32.20
30280;DHT22;17097;50.916;5.344;2022-08-11T14:19:24;37.30;32.70
30280;DHT22;17097;50.916;5.344;2022-08-11T14:21:51;37.30;33.70
30280;DHT22;17097;50.916;5.344;2022-08-11T14:24:36;37.30;34.20
30280;DHT22;17097;50.916;5.344;2022-08-11T14:27:05;37.40;33.90
30280;DHT22;17097;50.916;5.344;2022-08-11T14:29:32;37.50;32.30
30280;DHT22;17097;50.916;5.344;2022-08-11T14:32:12;37.40;32.50
30280;DHT22;17097;50.916;5.344;2022-08-11T14:34:41;37.50;33.10
30280;DHT22;17097;50.916;5.344;2022-08-11T14:37:12;37.40;33.90
30280;DHT22;17097;50.916;5.344;2022-08-11T14:39:44;37.30;32.70
30280;DHT22;17097;50.916;5.344;2022-08-11T14:42:13;37.40;34.10
30280;DHT22;17097;50.916;5.344;2022-08-11T14:45:01;37.30;33.90
30280;DHT22;17097;50.916;5.344;2022-08-11T14:47:49;37.40;33.70
30280;DHT22;17097;50.916;5.344;2022-08-11T14:50:20;37.40;33.60
30280;DHT22;17097;50.916;5.344;2022-08-11T14:53:02;37.40;33.10
30280;DHT22;17097;50.916;5.344;2022-08-11T14:55:31;37.50;32.40
30280;DHT22;17097;50.916;5.344;2022-08-11T14:58:19;37.60;32.90
30280;DHT22;17097;50.916;5.344;2022-08-11T15:00:46;37.30;32.60
30280;DHT22;17097;50.916;5.344;2022-08-11T15:03:14;37.30;32.80
30280;DHT22;17097;50.916;5.344;2022-08-11T15:05:46;37.20;33.50
30280;DHT22;17097;50.916;5.344;2022-08-11T15:08:13;37.10;33.80
30280;DHT22;17097;50.916;5.344;2022-08-11T15:10:40;37.00;33.20
30280;DHT22;17097;50.916;5.344;2022-08-11T15:13:06;36.90;33.60
30280;DHT22;17097;50.916;5.344;2022-08-11T15:15:33;37.10;35.10
30280;DHT22;17097;50.916;5.344;2022-08-11T15:18:19;36.90;32.60
30280;DHT22;17097;50.916;5.344;2022-08-11T15:20:49;36.80;32.60
30280;DHT22;17097;50.916;5.344;2022-08-11T15:23:33;36.60;32.90
30280;DHT22;17097;50.916;5.344;2022-08-11T15:26:31;36.50;33.30
30280;DHT22;17097;50.916;5.344;2022-08-11T15:29:29;36.50;34.20
30280;DHT22;17097;50.916;5.344;2022-08-11T15:32:14;36.50;33.00
30280;DHT22;17097;50.916;5.344;2022-08-11T15:34:58;36.40;33.30
30280;DHT22;17097;50.916;5.344;2022-08-11T15:37:43;36.30;33.90
30280;DHT22;17097;50.916;5.344;2022-08-11T15:40:18;36.40;35.30
30280;DHT22;17097;50.916;5.344;2022-08-11T15:46:06;36.50;33.40
30280;DHT22;17097;50.916;5.344;2022-08-11T15:48:42;36.40;33.60
30280;DHT22;17097;50.916;5.344;2022-08-11T15:51:15;36.20;33.90
30280;DHT22;17097;50.916;5.344;2022-08-11T15:53:46;36.10;34.20
30280;DHT22;17097;50.916;5.344;2022-08-11T15:56:15;35.90;34.20
30280;DHT22;17097;50.916;5.344;2022-08-11T15:58:49;35.80;35.10
30280;DHT22;17097;50.916;5.344;2022-08-11T16:01:37;35.70;35.20
30280;DHT22;17097;50.916;5.344;2022-08-11T16:04:24;35.70;34.70
30280;DHT22;17097;50.916;5.344;2022-08-11T16:07:04;35.70;35.20
30280;DHT22;17097;50.916;5.344;2022-08-11T16:09:46;35.80;35.60
30280;DHT22;17097;50.916;5.344;2022-08-11T16:12:16;35.90;34.90
30280;DHT22;17097;50.916;5.344;2022-08-11T16:14:45;35.90;35.40
30280;DHT22;17097;50.916;5.344;2022-08-11T16:17:37;35.90;35.40
30280;DHT22;17097;50.916;5.344;2022-08-11T16:20:06;35.90;36.00
30280;DHT22;17097;50.916;5.344;2022-08-11T16:22:34;35.80;35.60
30280;DHT22;17097;50.916;5.344;2022-08-11T16:25:09;35.80;35.40
30280;DHT22;17097;50.916;5.344;2022-08-11T16:27:39;35.80;35.50
30280;DHT22;17097;50.916;5.344;2022-08-11T16:30:07;35.70;36.70
30280;DHT22;17097;50.916;5.344;2022-08-11T16:32:35;35.60;35.40
30280;DHT22;17097;50.916;5.344;2022-08-11T16:35:05;35.70;35.80
30280;DHT22;17097;50.916;5.344;2022-08-11T16:37:51;35.70;36.50
30280;DHT22;17097;50.916;5.344;2022-08-11T16:40:38;35.60;35.90
30280;DHT22;17097;50.916;5.344;2022-08-11T16:43:11;35.60;36.60
30280;DHT22;17097;50.916;5.344;2022-08-11T16:45:58;35.60;36.30
30280;DHT22;17097;50.916;5.344;2022-08-11T16:48:44;35.70;36.70
30280;DHT22;17097;50.916;5.344;2022-08-11T16:51:11;35.60;36.60
30280;DHT22;17097;50.916;5.344;2022-08-11T16:53:37;35.50;36.70
30280;DHT22;17097;50.916;5.344;2022-08-11T16:56:05;35.50;36.60
30280;DHT22;17097;50.916;5.344;2022-08-11T16:58:34;35.30;36.70
30280;DHT22;17097;50.916;5.344;2022-08-11T17:01:22;35.20;37.60
30280;DHT22;17097;50.916;5.344;2022-08-11T17:04:16;35.20;38.20
30280;DHT22;17097;50.916;5.344;2022-08-11T17:07:04;35.40;37.70
30280;DHT22;17097;50.916;5.344;2022-08-11T17:09:49;35.20;38.30
30280;DHT22;17097;50.916;5.344;2022-08-11T17:12:37;35.20;38.20
30280;DHT22;17097;50.916;5.344;2022-08-11T17:15:24;35.20;38.30
30280;DHT22;17097;50.916;5.344;2022-08-11T17:18:12;35.10;38.00
30280;DHT22;17097;50.916;5.344;2022-08-11T17:20:59;35.10;38.30
30280;DHT22;17097;50.916;5.344;2022-08-11T17:23:27;35.20;38.30
30280;DHT22;17097;50.916;5.344;2022-08-11T17:28:44;34.90;38.80
30280;DHT22;17097;50.916;5.344;2022-08-11T17:31:12;34.80;39.00
30280;DHT22;17097;50.916;5.344;2022-08-11T17:33:58;34.80;39.10
30280;DHT22;17097;50.916;5.344;2022-08-11T17:36:44;34.60;39.60
30280;DHT22;17097;50.916;5.344;2022-08-11T17:39:11;34.50;39.70
30280;DHT22;17097;50.916;5.344;2022-08-11T17:41:38;34.50;39.90
30280;DHT22;17097;50.916;5.344;2022-08-11T17:44:24;34.40;39.40
30280;DHT22;17097;50.916;5.344;2022-08-11T17:47:09;34.30;39.90
30280;DHT22;17097;50.916;5.344;2022-08-11T17:49:54;34.10;40.60
30280;DHT22;17097;50.916;5.344;2022-08-11T17:52:22;34.00;40.80
30280;DHT22;17097;50.916;5.344;2022-08-11T17:55:07;34.00;40.60
30280;DHT22;17097;50.916;5.344;2022-08-11T17:57:52;34.00;40.70
30280;DHT22;17097;50.916;5.344;2022-08-11T18:00:37;33.90;40.50
30280;DHT22;17097;50.916;5.344;2022-08-11T18:03:04;33.80;40.40
30280;DHT22;17097;50.916;5.344;2022-08-11T18:05:48;33.60;40.80
30280;DHT22;17097;50.916;5.344;2022-08-11T18:08:16;33.60;41.60
30280;DHT22;17097;50.916;5.344;2022-08-11T18:11:02;33.40;42.00
30280;DHT22;17097;50.916;5.344;2022-08-11T18:13:47;33.20;41.70
30280;DHT22;17097;50.916;5.344;2022-08-11T18:16:31;33.30;41.80
30280;DHT22;17097;50.916;5.344;2022-08-11T18:19:16;33.20;41.80
30280;DHT22;17097;50.916;5.344;2022-08-11T18:22:05;33.30;41.50
30280;DHT22;17097;50.916;5.344;2022-08-11T18:24:55;33.20;41.80
30280;DHT22;17097;50.916;5.344;2022-08-11T18:27:43;32.90;42.20
30280;DHT22;17097;50.916;5.344;2022-08-11T18:30:32;32.90;42.20
30280;DHT22;17097;50.916;5.344;2022-08-11T18:33:20;32.70;42.60
30280;DHT22;17097;50.916;5.344;2022-08-11T18:36:06;32.50;42.60
30280;DHT22;17097;50.916;5.344;2022-08-11T18:38:56;32.40;42.50
30280;DHT22;17097;50.916;5.344;2022-08-11T18:41:42;32.30;42.90
30280;DHT22;17097;50.916;5.344;2022-08-11T18:44:29;32.20;43.00
30280;DHT22;17097;50.916;5.344;2022-08-11T18:47:16;32.10;43.20
30280;DHT22;17097;50.916;5.344;2022-08-11T18:50:03;31.90;43.30
30280;DHT22;17097;50.916;5.344;2022-08-11T18:52:51;31.90;43.40
30280;DHT22;17097;50.916;5.344;2022-08-11T18:55:36;31.70;43.60
30280;DHT22;17097;50.916;5.344;2022-08-11T18:58:27;31.50;43.80
30280;DHT22;17097;50.916;5.344;2022-08-11T19:01:14;31.40;44.10
30280;DHT22;17097;50.916;5.344;2022-08-11T19:03:59;31.30;44.00
30280;DHT22;17097;50.916;5.344;2022-08-11T19:06:46;31.20;44.30
30280;DHT22;17097;50.916;5.344;2022-08-11T19:09:31;31.10;44.70
30280;DHT22;17097;50.916;5.344;2022-08-11T19:12:19;31.00;44.70
30280;DHT22;17097;50.916;5.344;2022-08-11T19:15:05;30.90;44.80
30280;DHT22;17097;50.916;5.344;2022-08-11T19:17:51;30.70;45.20
30280;DHT22;17097;50.916;5.344;2022-08-11T19:20:37;30.60;45.50
30280;DHT22;17097;50.916;5.344;2022-08-11T19:23:32;30.60;45.70
30280;DHT22;17097;50.916;5.344;2022-08-11T19:26:19;30.40;45.70
30280;DHT22;17097;50.916;5.344;2022-08-11T19:29:04;30.40;45.90
30280;DHT22;17097;50.916;5.344;2022-08-11T19:31:48;30.30;46.10
30280;DHT22;17097;50.916;5.344;2022-08-11T19:34:32;30.20;45.90
30280;DHT22;17097;50.916;5.344;2022-08-11T19:37:18;30.00;46.10
30280;DHT22;17097;50.916;5.344;2022-08-11T19:40:07;30.00;46.00
30280;DHT22;17097;50.916;5.344;2022-08-11T19:42:54;30.00;46.20
30280;DHT22;17097;50.916;5.344;2022-08-11T19:45:39;29.80;47.00